< < Back
Terminal Aerodrome Forecast


Current Version              Previous Versions:   1  2  3  4  5  6  7  8  9  

Terminal Aerodrome Forecast

084
FTAK31 PAJN 281100
TAFAHN
TAF
PAHN 281137Z 2812/2912 30010G15KT P6SM OVC050
     FM281600 30010KT P6SM VCSH BKN030 OVC050
     FM281800 31010KT 6SM -SN OVC030
     FM282000 31010KT 3SM -SN OVC020
     FM290800 31006KT 6SM -SN OVC020
      AMD LTD TO CLD VIS AND WIND=



Latest METAR

148
SAUS70 KWBC 281800
MTRAHN
METAR KAHN 281751Z VRB04KT 10SM CLR 09/M06 A3026 RMK AO2 SLP254
T00891056 10089 21033 58002


USA.gov is the U.S. government's official web portal to all federal, state and local government web resources and services.